Planet Ace — 3EYF9 — position and weather

sailwx.info

Track history (hours):
 
Tides and Currents Weather Stations Pressure Air Temp Water Temp Dewpoint Dewpoint Depression Visibility Wind Speed Wind Dir Waves Ship Positions

Planet Ace

Last reported at 2014-Jul-30 15:32 UTC. Time now 2014-Jul-30 17:08 UTC.
Position N 51°35' E 002°42'.

Length 188 m; beam 28.2 m.

Type: Cargo ship. MMSI: 352168000.

Date/timePositionNaut miles runAvg speedWind from/ knotsBaromVisibWave heightAir tempDewpointWater temp
2014-Jul-30 15:32N 51°35' E 002°42'1111.4
2014-Jul-30 14:33N 51°24' E 002°48'1312.4
2014-Jul-30 13:33N 51°24' E 003°08'5 4.5
2014-Jul-30 12:29N 51°20' E 003°13'1 0.8
2014-Jul-30 11:32N 51°19' E 003°13'0 0.0
2014-Jul-30 10:32N 51°19' E 003°13'0 0.0
2014-Jul-30 09:32N 51°19' E 003°13'0 0.0
2014-Jul-30 08:26N 51°19' E 003°13'0 0.0
2014-Jul-30 07:32N 51°19' E 003°13'0 0.0
2014-Jul-30 06:26N 51°19' E 003°13'0 0.0
2014-Jul-30 05:32N 51°19' E 003°13'0 0.0
2014-Jul-30 04:32N 51°19' E 003°13'0 0.0
2014-Jul-30 03:32N 51°19' E 003°13'0 0.0
2014-Jul-30 02:14N 51°19' E 003°13'0 0.0
2014-Jul-30 01:26N 51°19' E 003°13'0 0.0
2014-Jul-30 00:32N 51°19' E 003°13'0 0.0
2014-Jul-29 23:32N 51°19' E 003°13'0 0.0
2014-Jul-29 22:26N 51°19' E 003°13'0 0.0
2014-Jul-29 21:32N 51°19' E 003°13'0 0.4
2014-Jul-29 20:33N 51°19' E 003°13'1 1.0
2014-Jul-29 19:33N 51°20' E 003°13'1 1.4
2014-Jul-29 18:34N 51°21' E 003°12'7 6.9
2014-Jul-29 17:34N 51°25' E 003°02'1010.2
2014-Jul-29 16:34N 51°24' E 002°46'7 6.6
2014-Jul-29 15:33N 51°27' E 002°36'0 0.3
2014-Jul-29 14:27N 51°26' E 002°36'0 0.0
2014-Jul-29 13:27N 51°26' E 002°36'0 0.0
2014-Jul-29 12:30N 51°26' E 002°36'0 0.0
2014-Jul-29 11:33N 51°26' E 002°36'0 0.0
2014-Jul-29 10:33N 51°26' E 002°36'0 0.0
2014-Jul-29 09:33N 51°26' E 002°36'0 0.0
2014-Jul-29 08:33N 51°26' E 002°36'2 2.3
2014-Jul-29 07:33N 51°27' E 002°40'1 0.6
2014-Jul-29 06:32N 51°27' E 002°41'1 1.0
2014-Jul-29 05:33N 51°28' E 002°40'4 4.4
2014-Jul-29 04:33N 51°24' E 002°36'1614.1
2014-Jul-29 03:25N 51°16' E 002°14'1415.8
2014-Jul-29 02:33N 51°09' E 001°55'1716.6
2014-Jul-29 01:33N 50°59' E 001°34'3715.1
2014-Jul-28 23:07N 50°29' E 000°60'915.2
2014-Jul-28 22:33N 50°23' E 000°50'4715.6
2014-Jul-28 19:33N 49°46' E 000°06'1413.9
2014-Jul-28 18:33N 49°34' W 000°04'8 8.1
2014-Jul-28 17:33N 49°29' E 000°06'3 3.1
2014-Jul-28 16:33N 49°29' E 000°10'0 0.5
2014-Jul-28 15:31N 49°28' E 000°11'0 0.0
2014-Jul-28 14:31N 49°28' E 000°11'0 0.0
2014-Jul-28 13:31N 49°28' E 000°11'0 0.0
2014-Jul-28 12:31N 49°28' E 000°11'0 0.0
2014-Jul-28 11:31N 49°28' E 000°11'0 0.0
2014-Jul-28 10:31N 49°28' E 000°11'0 0.0
2014-Jul-28 09:31N 49°28' E 000°11'0 0.0
2014-Jul-28 08:28N 49°28' E 000°11'0 0.0
2014-Jul-28 07:31N 49°28' E 000°11'0 0.0
2014-Jul-28 06:31N 49°28' E 000°11'0 0.0
2014-Jul-28 05:31N 49°28' E 000°11'0 0.0
2014-Jul-28 04:34N 49°28' E 000°11'0 0.0
2014-Jul-28 03:33N 49°28' E 000°11'0 0.0
2014-Jul-28 02:33N 49°28' E 000°11'0 0.0
2014-Jul-28 01:33N 49°28' E 000°11'0 0.0
2014-Jul-28 00:33N 49°28' E 000°11'0 0.0
2014-Jul-27 23:33N 49°28' E 000°11'0 0.0
2014-Jul-27 22:33N 49°28' E 000°11'0 0.0
2014-Jul-27 21:33N 49°28' E 000°11'0 0.0
2014-Jul-27 20:33N 49°28' E 000°11'0 0.0
2014-Jul-27 19:33N 49°28' E 000°11'0 0.0
2014-Jul-27 18:33N 49°28' E 000°11'0 0.3
2014-Jul-27 17:33N 49°29' E 000°11'1 1.3
2014-Jul-27 16:33N 49°28' E 000°09'1010.1
2014-Jul-27 15:33N 49°31' W 000°06'1111.1
2014-Jul-27 14:33N 49°35' W 000°22'1312.8
2014-Jul-27 13:33N 49°40' W 000°40'21514.1
2014-Jul-26 22:18N 48°30' W 005°51'1213.1
2014-Jul-26 21:25N 48°20' W 005°59'1212.9
2014-Jul-26 20:30N 48°09' W 006°07'1212.8
2014-Jul-26 19:33N 47°58' W 006°16'1813.4
2014-Jul-26 18:12N 47°42' W 006°28'913.5
2014-Jul-26 17:33N 47°34' W 006°34'1714.6
2014-Jul-26 16:22N 47°19' W 006°46'1414.7
2014-Jul-26 15:23N 47°06' W 006°56'48213.4
2014-Jul-25 03:28N 39°21' W 009°51'4013.4
2014-Jul-25 00:32N 38°41' W 009°51'1813.6
2014-Jul-24 23:14N 38°24' W 009°47'1013.7
2014-Jul-24 22:31N 38°15' W 009°43'1313.2
2014-Jul-24 21:30N 38°02' W 009°39'1313.2
2014-Jul-24 20:33N 37°49' W 009°36'1313.1
2014-Jul-24 19:33N 37°37' W 009°32'1513.1
2014-Jul-24 18:24N 37°22' W 009°28'1213.4
2014-Jul-24 17:31N 37°10' W 009°25'1313.3
2014-Jul-24 16:32N 36°58' W 009°21'2612.4
2014-Jul-24 14:28N 36°41' W 008°57'1313.4
2014-Jul-24 13:31N 36°37' W 008°42'1313.5
2014-Jul-24 12:33N 36°33' W 008°26'3014.1
2014-Jul-24 10:27N 36°23' W 007°52'11813.1
2014-Jul-24 01:25N 35°54' W 005°30'1 0.8
2014-Jul-24 00:31N 35°53' W 005°30'154 4.4
2014-Jul-22 13:13N 36°24' W 002°23'1014.8
2014-Jul-22 12:33N 36°26' W 002°11'3115.2
2014-Jul-22 10:31N 36°47' W 001°43'1414.9
2014-Jul-22 09:33N 36°55' W 001°29'1814.9
2014-Jul-22 08:19N 37°08' W 001°11'1114.9
2014-Jul-22 07:33N 37°15' W 001°01'1615.5
2014-Jul-22 06:33N 37°26' W 000°46'1615.9
2014-Jul-22 05:33N 37°37' W 000°32'1515.3
2014-Jul-22 04:33N 37°50' W 000°21'1515.0
2014-Jul-22 03:33N 38°02' W 000°11'1515.3
2014-Jul-22 02:33N 38°15' W 000°00'1515.2
2014-Jul-22 01:33N 38°28' E 000°10'1514.9
2014-Jul-22 00:33N 38°40' E 000°21'1515.0
2014-Jul-21 23:33N 38°53' E 000°31'1515.3
2014-Jul-21 22:33N 39°06' E 000°40'3815.0
2014-Jul-21 20:00N 39°40' E 001°03'714.6
2014-Jul-21 19:33N 39°46' E 001°07'1514.6
2014-Jul-21 18:33N 39°59' E 001°16'1514.6
2014-Jul-21 17:33N 40°12' E 001°26'1414.3
2014-Jul-21 16:33N 40°25' E 001°33'1514.6
2014-Jul-21 15:33N 40°38' E 001°42'1515.0
2014-Jul-21 14:33N 40°51' E 001°51'1515.0
2014-Jul-21 13:33N 41°04' E 002°01'1514.2
2014-Jul-21 12:31N 41°17' E 002°11'5 0.5
2014-Jul-21 02:12N 41°15' E 002°17'7 8.6
2014-Jul-21 01:26N 41°13' E 002°25'1 1.0
2014-Jul-21 00:33N 41°13' E 002°26'1 1.1
2014-Jul-20 23:32N 41°12' E 002°27'1 1.4
2014-Jul-20 22:33N 41°11' E 002°29'2 1.5
2014-Jul-20 21:32N 41°12' E 002°31'2 1.7
2014-Jul-20 20:32N 41°12' E 002°33'2 1.6
2014-Jul-20 19:33N 41°13' E 002°35'1 1.0
2014-Jul-20 18:31N 41°13' E 002°36'1 1.0
2014-Jul-20 17:33N 41°13' E 002°35'1 1.3
2014-Jul-20 16:33N 41°12' E 002°34'1 1.2
2014-Jul-20 15:33N 41°11' E 002°34'  
Track history (hours):
 
Tides and Currents Weather Stations Pressure Air Temp Water Temp Dewpoint Dewpoint Depression Visibility Wind Speed Wind Dir Waves Ship Positions

Planet Ace

Last reported at 2014-Jul-30 15:32 UTC. Time now 2014-Jul-30 17:08 UTC.
Position N 51°35' E 002°42'.

Length 188 m; beam 28.2 m.

Type: Cargo ship. MMSI: 352168000.

Date/timePositionNaut miles runAvg speedWind from/ knotsBaromVisibWave heightAir tempDewpointWater temp
2014-Jul-30 15:32N 51°35' E 002°42'1111.4
2014-Jul-30 14:33N 51°24' E 002°48'1312.4
2014-Jul-30 13:33N 51°24' E 003°08'5 4.5
2014-Jul-30 12:29N 51°20' E 003°13'1 0.8
2014-Jul-30 11:32N 51°19' E 003°13'0 0.0
2014-Jul-30 10:32N 51°19' E 003°13'0 0.0
2014-Jul-30 09:32N 51°19' E 003°13'0 0.0
2014-Jul-30 08:26N 51°19' E 003°13'0 0.0
2014-Jul-30 07:32N 51°19' E 003°13'0 0.0
2014-Jul-30 06:26N 51°19' E 003°13'0 0.0
2014-Jul-30 05:32N 51°19' E 003°13'0 0.0
2014-Jul-30 04:32N 51°19' E 003°13'0 0.0
2014-Jul-30 03:32N 51°19' E 003°13'0 0.0
2014-Jul-30 02:14N 51°19' E 003°13'0 0.0
2014-Jul-30 01:26N 51°19' E 003°13'0 0.0
2014-Jul-30 00:32N 51°19' E 003°13'0 0.0
2014-Jul-29 23:32N 51°19' E 003°13'0 0.0
2014-Jul-29 22:26N 51°19' E 003°13'0 0.0
2014-Jul-29 21:32N 51°19' E 003°13'0 0.4
2014-Jul-29 20:33N 51°19' E 003°13'1 1.0
2014-Jul-29 19:33N 51°20' E 003°13'1 1.4
2014-Jul-29 18:34N 51°21' E 003°12'7 6.9
2014-Jul-29 17:34N 51°25' E 003°02'1010.2
2014-Jul-29 16:34N 51°24' E 002°46'7 6.6
2014-Jul-29 15:33N 51°27' E 002°36'0 0.3
2014-Jul-29 14:27N 51°26' E 002°36'0 0.0
2014-Jul-29 13:27N 51°26' E 002°36'0 0.0
2014-Jul-29 12:30N 51°26' E 002°36'0 0.0
2014-Jul-29 11:33N 51°26' E 002°36'0 0.0
2014-Jul-29 10:33N 51°26' E 002°36'0 0.0
2014-Jul-29 09:33N 51°26' E 002°36'0 0.0
2014-Jul-29 08:33N 51°26' E 002°36'2 2.3
2014-Jul-29 07:33N 51°27' E 002°40'1 0.6
2014-Jul-29 06:32N 51°27' E 002°41'1 1.0
2014-Jul-29 05:33N 51°28' E 002°40'4 4.4
2014-Jul-29 04:33N 51°24' E 002°36'1614.1
2014-Jul-29 03:25N 51°16' E 002°14'1415.8
2014-Jul-29 02:33N 51°09' E 001°55'1716.6
2014-Jul-29 01:33N 50°59' E 001°34'3715.1
2014-Jul-28 23:07N 50°29' E 000°60'915.2
2014-Jul-28 22:33N 50°23' E 000°50'4715.6
2014-Jul-28 19:33N 49°46' E 000°06'1413.9
2014-Jul-28 18:33N 49°34' W 000°04'8 8.1
2014-Jul-28 17:33N 49°29' E 000°06'3 3.1
2014-Jul-28 16:33N 49°29' E 000°10'0 0.5
2014-Jul-28 15:31N 49°28' E 000°11'0 0.0
2014-Jul-28 14:31N 49°28' E 000°11'0 0.0
2014-Jul-28 13:31N 49°28' E 000°11'0 0.0
2014-Jul-28 12:31N 49°28' E 000°11'0 0.0
2014-Jul-28 11:31N 49°28' E 000°11'0 0.0
2014-Jul-28 10:31N 49°28' E 000°11'0 0.0
2014-Jul-28 09:31N 49°28' E 000°11'0 0.0
2014-Jul-28 08:28N 49°28' E 000°11'0 0.0
2014-Jul-28 07:31N 49°28' E 000°11'0 0.0
2014-Jul-28 06:31N 49°28' E 000°11'0 0.0
2014-Jul-28 05:31N 49°28' E 000°11'0 0.0
2014-Jul-28 04:34N 49°28' E 000°11'0 0.0
2014-Jul-28 03:33N 49°28' E 000°11'0 0.0
2014-Jul-28 02:33N 49°28' E 000°11'0 0.0
2014-Jul-28 01:33N 49°28' E 000°11'0 0.0
2014-Jul-28 00:33N 49°28' E 000°11'0 0.0
2014-Jul-27 23:33N 49°28' E 000°11'0 0.0
2014-Jul-27 22:33N 49°28' E 000°11'0 0.0
2014-Jul-27 21:33N 49°28' E 000°11'0 0.0
2014-Jul-27 20:33N 49°28' E 000°11'0 0.0
2014-Jul-27 19:33N 49°28' E 000°11'0 0.0
2014-Jul-27 18:33N 49°28' E 000°11'0 0.3
2014-Jul-27 17:33N 49°29' E 000°11'1 1.3
2014-Jul-27 16:33N 49°28' E 000°09'1010.1
2014-Jul-27 15:33N 49°31' W 000°06'1111.1
2014-Jul-27 14:33N 49°35' W 000°22'1312.8
2014-Jul-27 13:33N 49°40' W 000°40'21514.1
2014-Jul-26 22:18N 48°30' W 005°51'1213.1
2014-Jul-26 21:25N 48°20' W 005°59'1212.9
2014-Jul-26 20:30N 48°09' W 006°07'1212.8
2014-Jul-26 19:33N 47°58' W 006°16'1813.4
2014-Jul-26 18:12N 47°42' W 006°28'913.5
2014-Jul-26 17:33N 47°34' W 006°34'1714.6
2014-Jul-26 16:22N 47°19' W 006°46'1414.7
2014-Jul-26 15:23N 47°06' W 006°56'48213.4
2014-Jul-25 03:28N 39°21' W 009°51'4013.4
2014-Jul-25 00:32N 38°41' W 009°51'1813.6
2014-Jul-24 23:14N 38°24' W 009°47'1013.7
2014-Jul-24 22:31N 38°15' W 009°43'1313.2
2014-Jul-24 21:30N 38°02' W 009°39'1313.2
2014-Jul-24 20:33N 37°49' W 009°36'1313.1
2014-Jul-24 19:33N 37°37' W 009°32'1513.1
2014-Jul-24 18:24N 37°22' W 009°28'1213.4
2014-Jul-24 17:31N 37°10' W 009°25'1313.3
2014-Jul-24 16:32N 36°58' W 009°21'2612.4
2014-Jul-24 14:28N 36°41' W 008°57'1313.4
2014-Jul-24 13:31N 36°37' W 008°42'1313.5
2014-Jul-24 12:33N 36°33' W 008°26'3014.1
2014-Jul-24 10:27N 36°23' W 007°52'11813.1
2014-Jul-24 01:25N 35°54' W 005°30'1 0.8
2014-Jul-24 00:31N 35°53' W 005°30'154 4.4
2014-Jul-22 13:13N 36°24' W 002°23'1014.8
2014-Jul-22 12:33N 36°26' W 002°11'3115.2
2014-Jul-22 10:31N 36°47' W 001°43'1414.9
2014-Jul-22 09:33N 36°55' W 001°29'1814.9
2014-Jul-22 08:19N 37°08' W 001°11'1114.9
2014-Jul-22 07:33N 37°15' W 001°01'1615.5
2014-Jul-22 06:33N 37°26' W 000°46'1615.9
2014-Jul-22 05:33N 37°37' W 000°32'1515.3
2014-Jul-22 04:33N 37°50' W 000°21'1515.0
2014-Jul-22 03:33N 38°02' W 000°11'1515.3
2014-Jul-22 02:33N 38°15' W 000°00'1515.2
2014-Jul-22 01:33N 38°28' E 000°10'1514.9
2014-Jul-22 00:33N 38°40' E 000°21'1515.0
2014-Jul-21 23:33N 38°53' E 000°31'1515.3
2014-Jul-21 22:33N 39°06' E 000°40'3815.0
2014-Jul-21 20:00N 39°40' E 001°03'714.6
2014-Jul-21 19:33N 39°46' E 001°07'1514.6
2014-Jul-21 18:33N 39°59' E 001°16'1514.6
2014-Jul-21 17:33N 40°12' E 001°26'1414.3
2014-Jul-21 16:33N 40°25' E 001°33'1514.6
2014-Jul-21 15:33N 40°38' E 001°42'1515.0
2014-Jul-21 14:33N 40°51' E 001°51'1515.0
2014-Jul-21 13:33N 41°04' E 002°01'1514.2
2014-Jul-21 12:31N 41°17' E 002°11'5 0.5
2014-Jul-21 02:12N 41°15' E 002°17'7 8.6
2014-Jul-21 01:26N 41°13' E 002°25'1 1.0
2014-Jul-21 00:33N 41°13' E 002°26'1 1.1
2014-Jul-20 23:32N 41°12' E 002°27'1 1.4
2014-Jul-20 22:33N 41°11' E 002°29'2 1.5
2014-Jul-20 21:32N 41°12' E 002°31'2 1.7
2014-Jul-20 20:32N 41°12' E 002°33'2 1.6
2014-Jul-20 19:33N 41°13' E 002°35'1 1.0
2014-Jul-20 18:31N 41°13' E 002°36'1 1.0
2014-Jul-20 17:33N 41°13' E 002°35'1 1.3
2014-Jul-20 16:33N 41°12' E 002°34'1 1.2
2014-Jul-20 15:33N 41°11' E 002°34'  

Dump ship's entire track history